createdAt,value
2022-09-07T00:01:28.297Z,81.60
2022-09-07T00:04:00.670Z,81.50
2022-09-07T00:06:28.332Z,81.80
2022-09-07T00:08:56.224Z,81.80
2022-09-07T00:11:24.072Z,81.90
2022-09-07T00:13:51.559Z,81.90
2022-09-07T00:16:28.925Z,82.00
2022-09-07T00:19:00.883Z,82.00
2022-09-07T00:21:29.531Z,82.10
2022-09-07T00:24:05.138Z,81.90
2022-09-07T00:26:35.475Z,82.10
2022-09-07T00:29:05.356Z,82.10
2022-09-07T00:31:33.724Z,82.20
2022-09-07T00:34:12.339Z,82.40
2022-09-07T00:36:56.449Z,82.30
2022-09-07T00:39:33.568Z,82.30
2022-09-07T00:42:13.877Z,82.40
2022-09-07T00:45:10.757Z,82.50
2022-09-07T00:47:48.244Z,82.60
2022-09-07T00:50:34.444Z,82.60
2022-09-07T00:53:17.936Z,82.90
2022-09-07T00:55:47.601Z,82.90
2022-09-07T00:58:16.118Z,83.10
2022-09-07T01:00:46.500Z,83.10
2022-09-07T01:03:16.420Z,83.30
2022-09-07T01:06:06.322Z,83.00
2022-09-07T01:08:38.218Z,83.20
2022-09-07T01:11:06.974Z,83.10
2022-09-07T01:13:35.278Z,83.10
2022-09-07T01:16:06.263Z,83.20
2022-09-07T01:18:52.923Z,83.30
2022-09-07T01:21:32.743Z,83.20
2022-09-07T01:24:26.525Z,83.20
2022-09-07T01:27:12.505Z,83.10
2022-09-07T01:29:56.152Z,83.40
2022-09-07T01:32:42.107Z,83.30
2022-09-07T01:35:33.140Z,83.40
2022-09-07T01:38:13.513Z,83.30
2022-09-07T01:40:44.294Z,83.20
2022-09-07T01:43:25.233Z,83.30
2022-09-07T01:45:55.947Z,83.20
2022-09-07T01:48:26.020Z,83.10
2022-09-07T01:51:24.531Z,82.90
2022-09-07T01:54:05.570Z,82.60
2022-09-07T01:56:40.982Z,82.60
2022-09-07T01:59:27.705Z,82.50
2022-09-07T02:02:19.355Z,82.50
2022-09-07T02:04:56.332Z,82.40
2022-09-07T02:07:35.281Z,82.40
2022-09-07T02:10:27.517Z,82.40
2022-09-07T02:13:17.348Z,82.60
2022-09-07T02:15:56.955Z,82.70
2022-09-07T02:18:27.733Z,83.00
2022-09-07T02:20:59.062Z,83.10
2022-09-07T02:23:36.235Z,83.20
2022-09-07T02:26:08.656Z,83.30
2022-09-07T02:28:42.590Z,83.30
2022-09-07T02:31:13.389Z,83.40
2022-09-07T02:33:42.615Z,83.40
2022-09-07T02:36:12.093Z,83.40
2022-09-07T02:38:48.979Z,83.30
2022-09-07T02:41:46.869Z,83.40
2022-09-07T02:44:20.254Z,83.60
2022-09-07T02:47:00.132Z,83.80
2022-09-07T02:49:44.376Z,83.90
2022-09-07T02:52:41.462Z,83.90
2022-09-07T02:55:20.433Z,83.90
2022-09-07T02:58:18.880Z,84.00
2022-09-07T03:01:16.112Z,84.30
2022-09-07T03:04:24.502Z,84.30
2022-09-07T03:06:59.642Z,84.50
2022-09-07T03:09:32.225Z,84.50
2022-09-07T03:12:03.382Z,84.20
2022-09-07T03:14:33.501Z,83.90
2022-09-07T03:17:04.138Z,83.60
2022-09-07T03:19:34.415Z,83.40
2022-09-07T03:22:01.875Z,83.10
2022-09-07T03:24:29.765Z,83.00
2022-09-07T03:26:58.430Z,82.70
2022-09-07T03:29:39.133Z,82.40
2022-09-07T03:32:11.357Z,82.40
2022-09-07T03:34:38.663Z,82.20
2022-09-07T03:37:06.274Z,82.00
2022-09-07T03:39:35.551Z,82.00
2022-09-07T03:42:03.029Z,82.20
2022-09-07T03:44:36.451Z,82.60
2022-09-07T03:47:07.828Z,82.80
2022-09-07T03:49:36.271Z,82.70
2022-09-07T03:52:04.546Z,82.70
2022-09-07T03:54:33.604Z,82.40
2022-09-07T03:57:03.562Z,82.30
2022-09-07T03:59:31.264Z,82.10
2022-09-07T04:02:01.222Z,81.70
2022-09-07T04:04:29.167Z,81.00
2022-09-07T04:06:56.585Z,81.10
2022-09-07T04:09:24.306Z,80.80
2022-09-07T04:11:54.458Z,80.70
2022-09-07T04:14:22.379Z,80.60
2022-09-07T04:16:52.784Z,80.80
2022-09-07T04:19:20.097Z,81.10
2022-09-07T04:21:48.014Z,81.80
2022-09-07T04:24:16.756Z,82.10
2022-09-07T04:26:45.338Z,82.40
2022-09-07T04:29:13.794Z,82.40
2022-09-07T04:31:41.486Z,82.80
2022-09-07T04:34:10.131Z,82.80
2022-09-07T04:36:40.610Z,82.90
2022-09-07T04:39:08.285Z,82.90
2022-09-07T04:41:35.934Z,82.40
2022-09-07T04:44:04.864Z,82.40
2022-09-07T04:46:38.923Z,82.30
2022-09-07T04:49:19.360Z,82.20
2022-09-07T04:51:49.832Z,82.10
2022-09-07T04:54:37.610Z,81.90
2022-09-07T04:57:06.034Z,81.80
2022-09-07T04:59:34.120Z,81.50
2022-09-07T05:02:02.935Z,81.20
2022-09-07T05:04:31.554Z,80.90
2022-09-07T05:07:02.625Z,80.60
2022-09-07T05:09:33.828Z,80.00
2022-09-07T05:12:02.092Z,79.50
2022-09-07T05:14:29.542Z,79.00
2022-09-07T05:16:57.600Z,78.60
2022-09-07T05:19:25.550Z,78.30
2022-09-07T05:21:53.530Z,78.20
2022-09-07T05:24:21.385Z,78.20
2022-09-07T05:26:48.857Z,78.20
2022-09-07T05:32:14.810Z,78.10
2022-09-07T05:34:46.753Z,77.50
2022-09-07T05:37:22.337Z,77.30
2022-09-07T05:39:52.247Z,76.90
2022-09-07T05:42:28.527Z,76.50
2022-09-07T05:44:56.966Z,76.00
2022-09-07T05:47:30.351Z,75.70
2022-09-07T05:50:11.639Z,75.50
2022-09-07T05:52:42.003Z,75.60
2022-09-07T05:55:28.839Z,75.70
2022-09-07T05:58:07.083Z,75.50
2022-09-07T06:00:37.477Z,75.70
2022-09-07T06:03:15.716Z,75.60
2022-09-07T06:05:43.992Z,75.30
2022-09-07T06:08:15.700Z,75.30
2022-09-07T06:10:52.229Z,75.40
2022-09-07T06:13:27.455Z,75.30
2022-09-07T06:16:04.914Z,75.10
2022-09-07T06:18:50.630Z,75.10
2022-09-07T06:21:26.962Z,75.00
2022-09-07T06:23:55.621Z,75.30
2022-09-07T06:26:29.547Z,75.30
2022-09-07T06:34:58.217Z,62.60
2022-09-07T06:37:26.603Z,56.20
2022-09-07T06:39:54.797Z,51.70
2022-09-07T06:42:33.336Z,45.70
2022-09-07T06:45:07.293Z,41.00
2022-09-07T06:47:38.219Z,39.00
2022-09-07T06:50:14.472Z,37.60
2022-09-07T06:55:52.219Z,35.60
2022-09-07T06:58:25.534Z,35.10
2022-09-07T07:00:54.220Z,34.80
2022-09-07T07:03:22.564Z,34.70
2022-09-07T07:06:02.161Z,34.20
2022-09-07T07:08:36.442Z,34.00
2022-09-07T07:11:34.531Z,34.10
2022-09-07T07:14:07.965Z,33.20
2022-09-07T07:16:36.922Z,33.10
2022-09-07T07:19:08.746Z,33.00
2022-09-07T07:22:07.353Z,33.00
2022-09-07T07:24:29.016Z,33.10
2022-09-07T07:27:07.665Z,32.80
2022-09-07T07:29:46.705Z,32.50
2022-09-07T07:32:21.226Z,31.70
2022-09-07T07:34:49.177Z,31.60
2022-09-07T07:37:17.510Z,31.60
2022-09-07T07:42:51.787Z,31.00
2022-09-07T07:45:55.243Z,31.00
2022-09-07T07:48:44.679Z,31.30
2022-09-07T07:51:14.331Z,32.10
2022-09-07T07:53:42.854Z,32.20
2022-09-07T07:56:14.040Z,32.80
2022-09-07T07:59:00.299Z,32.00
2022-09-07T08:01:30.671Z,32.50
2022-09-07T08:04:04.549Z,33.60
2022-09-07T08:06:35.315Z,35.10
2022-09-07T08:09:14.254Z,37.10
2022-09-07T08:11:47.954Z,38.80
2022-09-07T08:14:16.841Z,41.50
2022-09-07T08:16:49.324Z,43.50
2022-09-07T08:19:16.981Z,45.40
2022-09-07T08:21:47.012Z,47.10
2022-09-07T08:24:17.458Z,48.10
2022-09-07T08:26:49.892Z,49.10
2022-09-07T08:29:30.181Z,50.00
2022-09-07T08:32:10.897Z,50.30
2022-09-07T08:34:41.243Z,51.10
2022-09-07T08:37:11.463Z,51.90
2022-09-07T08:39:38.970Z,52.30
2022-09-07T08:42:33.938Z,52.80
2022-09-07T08:45:15.852Z,53.20
2022-09-07T08:47:49.603Z,53.60
2022-09-07T08:50:50.463Z,53.10
2022-09-07T08:53:25.303Z,53.90
2022-09-07T08:56:09.672Z,54.30
2022-09-07T08:58:49.449Z,53.40
2022-09-07T09:01:35.629Z,50.10
2022-09-07T09:04:15.986Z,48.20
2022-09-07T09:07:28.466Z,47.60
2022-09-07T09:10:19.897Z,47.80
2022-09-07T09:13:20.182Z,48.50
2022-09-07T09:16:36.704Z,48.90
2022-09-07T09:22:42.487Z,46.90
2022-09-07T09:25:37.797Z,48.30
2022-09-07T09:28:14.584Z,50.30
2022-09-07T09:30:47.261Z,51.00
2022-09-07T09:33:24.530Z,51.40
2022-09-07T09:35:59.533Z,51.40
2022-09-07T09:38:45.308Z,50.80
2022-09-07T09:41:17.041Z,50.30
2022-09-07T09:43:49.241Z,50.30
2022-09-07T09:46:29.649Z,49.80
2022-09-07T09:49:06.439Z,50.00
2022-09-07T09:54:48.204Z,49.70
2022-09-07T10:06:24.392Z,47.80
2022-09-07T10:09:18.508Z,48.00
2022-09-07T10:12:10.061Z,47.70
2022-09-07T10:14:49.864Z,47.90
2022-09-07T10:17:47.134Z,48.70
2022-09-07T10:20:24.272Z,49.10
2022-09-07T10:23:01.232Z,48.70
2022-09-07T10:25:40.607Z,48.60
2022-09-07T10:31:40.253Z,49.30
2022-09-07T10:34:31.743Z,50.00
2022-09-07T10:37:10.228Z,50.40
2022-09-07T10:39:42.481Z,50.90
2022-09-07T10:42:11.299Z,51.20
2022-09-07T10:45:02.224Z,51.70
2022-09-07T10:48:11.094Z,51.30
2022-09-07T10:51:05.139Z,52.20
2022-09-07T10:57:24.209Z,53.70
2022-09-07T11:00:13.167Z,53.50
2022-09-07T11:03:25.963Z,53.10
2022-09-07T11:06:18.690Z,51.10
2022-09-07T11:09:41.959Z,50.80
2022-09-07T11:12:22.079Z,50.70
2022-09-07T11:15:12.466Z,50.60
2022-09-07T11:17:53.045Z,49.80
2022-09-07T11:20:38.858Z,49.00
2022-09-07T11:23:41.025Z,48.80
2022-09-07T11:26:33.092Z,48.10
2022-09-07T11:29:29.476Z,47.70
2022-09-07T11:32:08.653Z,46.50
2022-09-07T11:34:46.646Z,46.60
2022-09-07T11:38:04.076Z,46.80
2022-09-07T11:41:18.249Z,47.40
2022-09-07T11:44:33.546Z,48.10
2022-09-07T11:47:21.498Z,48.70
2022-09-07T11:49:59.489Z,49.30
2022-09-07T11:52:44.884Z,49.70
2022-09-07T11:55:29.716Z,50.20
2022-09-07T11:58:29.950Z,50.70
2022-09-07T12:01:36.762Z,50.20
2022-09-07T12:04:19.718Z,50.10
2022-09-07T12:07:18.834Z,50.40
2022-09-07T12:10:24.878Z,50.00
2022-09-07T12:13:25.207Z,49.80
2022-09-07T12:15:57.139Z,50.50
2022-09-07T12:19:07.040Z,50.80
2022-09-07T12:21:53.459Z,51.00
2022-09-07T12:24:34.928Z,50.20
2022-09-07T12:27:16.609Z,50.20
2022-09-07T12:29:45.592Z,50.60
2022-09-07T12:35:34.118Z,52.20
2022-09-07T12:38:26.983Z,52.10
2022-09-07T12:41:01.592Z,52.20
2022-09-07T12:43:37.079Z,52.10
2022-09-07T12:46:39.753Z,51.90
2022-09-07T12:49:25.777Z,52.40
2022-09-07T12:52:27.872Z,52.70
2022-09-07T12:55:28.461Z,52.90
2022-09-07T12:58:19.837Z,53.40
2022-09-07T13:01:15.287Z,53.60
2022-09-07T13:04:37.907Z,53.80
2022-09-07T13:07:24.385Z,53.60
2022-09-07T13:10:05.317Z,53.70
2022-09-07T13:12:57.279Z,53.40
2022-09-07T13:16:15.016Z,52.60
2022-09-07T13:18:45.240Z,52.20
2022-09-07T13:21:17.738Z,52.00
2022-09-07T13:24:50.296Z,52.00
2022-09-07T13:27:39.457Z,52.40
2022-09-07T13:30:16.717Z,53.00
2022-09-07T13:35:32.381Z,53.30
2022-09-07T13:38:09.605Z,53.80
2022-09-07T13:40:45.107Z,53.90
2022-09-07T13:43:20.066Z,54.20
2022-09-07T13:45:53.196Z,54.40
2022-09-07T13:48:34.572Z,54.40
2022-09-07T13:51:29.151Z,54.20
2022-09-07T13:53:56.943Z,54.90
2022-09-07T13:56:42.207Z,55.00
2022-09-07T13:59:25.110Z,54.60
2022-09-07T14:01:58.930Z,54.80
2022-09-07T14:04:50.740Z,55.10
2022-09-07T14:07:28.862Z,55.50
2022-09-07T14:10:22.835Z,55.90
2022-09-07T14:13:05.339Z,56.50
2022-09-07T14:15:45.605Z,57.00
2022-09-07T14:18:20.074Z,57.10
2022-09-07T14:20:51.281Z,56.70
2022-09-07T14:23:31.511Z,56.70
2022-09-07T14:26:25.634Z,56.70
2022-09-07T14:28:55.711Z,57.00
2022-09-07T14:31:41.329Z,57.40
2022-09-07T14:34:10.035Z,57.50
2022-09-07T14:36:45.899Z,57.80
2022-09-07T14:39:17.896Z,58.10
2022-09-07T14:41:46.757Z,58.30
2022-09-07T14:44:39.054Z,58.40
2022-09-07T14:47:43.982Z,58.60
2022-09-07T14:50:37.133Z,58.80
2022-09-07T14:56:14.520Z,57.40
2022-09-07T14:58:42.288Z,57.20
2022-09-07T15:01:37.458Z,57.40
2022-09-07T15:04:28.281Z,57.30
2022-09-07T15:07:47.781Z,57.00
2022-09-07T15:10:21.160Z,56.70
2022-09-07T15:12:56.776Z,56.50
2022-09-07T15:15:37.177Z,56.40
2022-09-07T15:18:55.592Z,56.70
2022-09-07T15:21:45.055Z,56.50
2022-09-07T15:24:17.976Z,56.50
2022-09-07T15:27:03.194Z,56.50
2022-09-07T15:29:33.478Z,56.70
2022-09-07T15:32:04.799Z,55.80
2022-09-07T15:34:35.626Z,55.30
2022-09-07T15:38:01.226Z,55.50
2022-09-07T15:40:01.920Z,55.80
2022-09-07T15:45:22.334Z,56.40
2022-09-07T15:47:52.833Z,56.60
2022-09-07T15:50:44.222Z,56.80
2022-09-07T15:56:14.220Z,56.70
2022-09-07T15:58:46.967Z,56.80
2022-09-07T16:04:15.246Z,57.10
2022-09-07T16:06:47.871Z,57.40
2022-09-07T16:09:17.453Z,57.40
2022-09-07T16:11:51.231Z,57.90
2022-09-07T16:14:28.848Z,57.80
2022-09-07T16:19:48.649Z,58.10
2022-09-07T16:25:10.305Z,58.40
2022-09-07T16:27:38.406Z,58.60
2022-09-07T16:30:10.569Z,59.20
2022-09-07T16:32:45.527Z,59.70
2022-09-07T16:35:13.669Z,60.10
2022-09-07T16:38:43.587Z,60.40
2022-09-07T16:40:30.721Z,60.60
2022-09-07T16:42:58.373Z,61.30
2022-09-07T16:48:16.733Z,62.20
2022-09-07T16:50:55.417Z,61.60
2022-09-07T16:53:39.647Z,61.60
2022-09-07T16:56:09.613Z,62.50
2022-09-07T16:58:42.928Z,62.70
2022-09-07T17:01:13.629Z,62.90
2022-09-07T17:03:56.168Z,63.20
2022-09-07T17:06:30.031Z,63.50
2022-09-07T17:08:59.687Z,63.80
2022-09-07T17:11:33.651Z,64.20
2022-09-07T17:14:08.933Z,64.30
2022-09-07T17:16:39.496Z,64.50
2022-09-07T17:22:12.589Z,65.10
2022-09-07T17:24:41.295Z,65.10
2022-09-07T17:27:13.377Z,65.30
2022-09-07T17:29:42.971Z,65.50
2022-09-07T17:32:27.819Z,65.60
2022-09-07T17:34:58.970Z,66.10
2022-09-07T17:37:29.566Z,66.10
2022-09-07T17:39:57.623Z,66.20
2022-09-07T17:43:38.764Z,66.70
2022-09-07T17:45:22.636Z,67.10
2022-09-07T17:47:56.289Z,67.70
2022-09-07T17:50:23.854Z,67.80
2022-09-07T17:52:53.943Z,67.90
2022-09-07T17:55:28.813Z,68.00
2022-09-07T17:57:57.119Z,68.40
2022-09-07T18:00:29.207Z,68.80
2022-09-07T18:03:00.843Z,69.60
2022-09-07T18:05:33.661Z,69.70
2022-09-07T18:08:01.125Z,69.80
2022-09-07T18:13:35.662Z,70.50
2022-09-07T18:16:19.621Z,70.70
2022-09-07T18:18:49.009Z,70.70
2022-09-07T18:21:19.640Z,71.20
2022-09-07T18:23:54.775Z,71.30
2022-09-07T18:26:26.699Z,71.60
2022-09-07T18:29:05.622Z,72.10
2022-09-07T18:31:36.726Z,72.70
2022-09-07T18:34:08.183Z,72.80
2022-09-07T18:36:39.673Z,72.60
2022-09-07T18:39:07.752Z,72.80
2022-09-07T18:41:34.982Z,73.00
2022-09-07T18:44:03.069Z,73.00
2022-09-07T18:46:30.359Z,72.90
2022-09-07T18:48:58.265Z,73.10
2022-09-07T18:51:27.207Z,73.30
2022-09-07T18:53:55.632Z,73.30
2022-09-07T18:56:23.892Z,73.20
2022-09-07T18:58:59.987Z,73.40
2022-09-07T19:01:32.058Z,73.40
2022-09-07T19:04:04.985Z,73.70
2022-09-07T19:06:32.759Z,74.00
2022-09-07T19:09:04.937Z,74.10
2022-09-07T19:11:38.447Z,74.10
2022-09-07T19:14:08.213Z,74.80
2022-09-07T19:16:36.627Z,75.20
2022-09-07T19:19:09.213Z,75.20
2022-09-07T19:21:39.492Z,75.40
2022-09-07T19:24:08.433Z,75.30
2022-09-07T19:26:41.836Z,75.50
2022-09-07T19:29:16.953Z,75.60
2022-09-07T19:32:05.000Z,75.60
2022-09-07T19:34:39.962Z,75.80
2022-09-07T19:37:09.102Z,76.00
2022-09-07T19:39:37.189Z,75.90
2022-09-07T19:42:13.875Z,76.00
2022-09-07T19:44:41.420Z,75.80
2022-09-07T19:47:09.374Z,75.80
2022-09-07T19:49:38.119Z,75.90
2022-09-07T19:52:11.710Z,76.20
2022-09-07T19:54:42.458Z,76.20
2022-09-07T19:57:12.166Z,76.20
2022-09-07T19:59:43.257Z,76.40
2022-09-07T20:02:11.774Z,76.60
2022-09-07T20:04:41.704Z,76.70
2022-09-07T20:07:13.517Z,76.80
2022-09-07T20:09:43.918Z,77.00
2022-09-07T20:12:11.138Z,76.90
2022-09-07T20:14:39.120Z,76.70
2022-09-07T20:17:06.366Z,76.90
2022-09-07T20:19:34.328Z,76.70
2022-09-07T20:22:09.266Z,76.90
2022-09-07T20:24:36.510Z,77.00
2022-09-07T20:27:12.303Z,77.20
2022-09-07T20:29:42.990Z,77.30
2022-09-07T20:32:10.489Z,77.50
2022-09-07T20:34:40.190Z,77.50
2022-09-07T20:37:11.051Z,77.70
2022-09-07T20:39:41.083Z,77.60
2022-09-07T20:42:08.923Z,77.60
2022-09-07T20:44:36.324Z,77.80
2022-09-07T20:47:07.371Z,77.80
2022-09-07T20:49:35.665Z,78.10
2022-09-07T20:52:13.957Z,78.10
2022-09-07T20:55:07.070Z,78.20
2022-09-07T20:57:38.193Z,78.30
2022-09-07T21:00:06.118Z,78.20
2022-09-07T21:02:33.621Z,78.20
2022-09-07T21:05:10.501Z,78.20
2022-09-07T21:07:42.010Z,78.70
2022-09-07T21:10:12.637Z,79.20
2022-09-07T21:12:50.540Z,79.50
2022-09-07T21:15:18.664Z,79.50
2022-09-07T21:17:46.040Z,79.70
2022-09-07T21:20:16.549Z,79.60
2022-09-07T21:22:44.125Z,79.70
2022-09-07T21:25:11.258Z,80.30
2022-09-07T21:27:39.239Z,80.50
2022-09-07T21:30:07.398Z,80.60
2022-09-07T21:32:34.502Z,80.90
2022-09-07T21:35:05.425Z,81.20
2022-09-07T21:37:32.629Z,81.50
2022-09-07T21:40:01.272Z,81.70
2022-09-07T21:42:30.357Z,81.90
2022-09-07T21:44:58.046Z,81.80
2022-09-07T21:47:25.509Z,82.00
2022-09-07T21:49:53.233Z,82.50
2022-09-07T21:52:21.286Z,83.10
2022-09-07T21:54:48.685Z,83.30
2022-09-07T21:57:17.605Z,83.50
2022-09-07T21:59:45.597Z,83.70
2022-09-07T22:02:19.511Z,83.80
2022-09-07T22:04:46.983Z,84.00
2022-09-07T22:07:14.682Z,84.30
2022-09-07T22:09:42.147Z,84.60
2022-09-07T22:12:09.492Z,84.50
2022-09-07T22:14:36.674Z,84.60
2022-09-07T22:17:04.751Z,84.60
2022-09-07T22:19:35.819Z,84.70
2022-09-07T22:22:03.137Z,84.70
2022-09-07T22:24:31.179Z,84.90
2022-09-07T22:26:59.006Z,84.90
2022-09-07T22:29:27.011Z,84.90
2022-09-07T22:32:04.696Z,84.90
2022-09-07T22:34:33.719Z,85.10
2022-09-07T22:37:01.263Z,85.20
2022-09-07T22:39:28.746Z,85.20
2022-09-07T22:41:56.269Z,85.30
2022-09-07T22:44:30.610Z,85.20
2022-09-07T22:46:59.165Z,85.10
2022-09-07T22:49:27.212Z,85.30
2022-09-07T22:51:54.683Z,85.20
2022-09-07T22:54:23.270Z,85.20
2022-09-07T22:56:50.748Z,85.20
2022-09-07T22:59:20.699Z,85.10
2022-09-07T23:01:51.429Z,85.00
2022-09-07T23:04:19.285Z,84.90
2022-09-07T23:06:46.519Z,85.10
2022-09-07T23:09:18.843Z,85.00
2022-09-07T23:11:47.599Z,85.00
2022-09-07T23:14:25.300Z,85.40
2022-09-07T23:17:04.032Z,85.20
2022-09-07T23:19:31.896Z,85.00
2022-09-07T23:21:59.877Z,85.10
2022-09-07T23:24:30.673Z,85.10
2022-09-07T23:27:07.500Z,85.00
2022-09-07T23:29:37.090Z,84.90
2022-09-07T23:32:06.716Z,85.20
2022-09-07T23:34:36.718Z,85.20
2022-09-07T23:37:10.405Z,85.10
2022-09-07T23:39:38.823Z,85.20
2022-09-07T23:42:12.031Z,85.40
2022-09-07T23:44:44.038Z,85.60
2022-09-07T23:47:13.584Z,85.70
2022-09-07T23:49:41.597Z,85.80
2022-09-07T23:52:13.474Z,85.90
2022-09-07T23:54:40.993Z,85.90
2022-09-07T23:57:10.224Z,85.80
2022-09-07T23:59:40.448Z,85.70
